createdAt,value
2022-09-12T00:01:23.377Z,13.86
2022-09-12T00:03:58.112Z,13.84
2022-09-12T00:06:30.314Z,13.86
2022-09-12T00:09:00.098Z,13.88
2022-09-12T00:11:27.082Z,13.90
2022-09-12T00:14:01.645Z,13.93
2022-09-12T00:16:30.001Z,13.90
2022-09-12T00:18:56.797Z,13.76
2022-09-12T00:21:23.916Z,13.67
2022-09-12T00:23:51.469Z,13.67
2022-09-12T00:26:18.929Z,13.65
2022-09-12T00:28:45.761Z,13.66
2022-09-12T00:31:15.799Z,13.67
2022-09-12T00:33:42.946Z,13.63
2022-09-12T00:36:15.288Z,13.58
2022-09-12T00:38:42.603Z,13.56
2022-09-12T00:41:25.125Z,13.50
2022-09-12T00:43:58.476Z,13.54
2022-09-12T00:46:39.133Z,13.53
2022-09-12T00:49:16.186Z,13.44
2022-09-12T00:51:48.178Z,13.35
2022-09-12T00:54:19.613Z,13.42
2022-09-12T00:56:48.509Z,13.47
2022-09-12T00:59:19.507Z,13.46
2022-09-12T01:01:49.655Z,13.47
2022-09-12T01:04:19.974Z,13.51
2022-09-12T01:06:47.175Z,13.53
2022-09-12T01:09:17.918Z,13.57
2022-09-12T01:11:47.067Z,13.59
2022-09-12T01:14:17.563Z,13.59
2022-09-12T01:16:45.731Z,13.60
2022-09-12T01:19:18.741Z,13.61
2022-09-12T01:22:05.455Z,13.61
2022-09-12T01:24:59.049Z,13.59
2022-09-12T01:27:34.868Z,13.58
2022-09-12T01:30:24.382Z,13.57
2022-09-12T01:33:17.972Z,13.54
2022-09-12T01:36:02.972Z,13.54
2022-09-12T01:38:48.339Z,13.51
2022-09-12T01:41:37.841Z,13.45
2022-09-12T01:44:08.904Z,13.45
2022-09-12T01:47:05.448Z,13.41
2022-09-12T01:49:59.719Z,13.34
2022-09-12T01:52:34.827Z,13.26
2022-09-12T01:55:12.773Z,13.17
2022-09-12T01:58:05.119Z,13.03
2022-09-12T02:00:42.566Z,12.95
2022-09-12T02:03:14.960Z,12.91
2022-09-12T02:05:47.625Z,12.85
2022-09-12T02:08:28.553Z,12.79
2022-09-12T02:11:04.080Z,12.81
2022-09-12T02:13:37.583Z,12.84
2022-09-12T02:16:10.731Z,12.76
2022-09-12T02:18:43.419Z,12.72
2022-09-12T02:21:10.391Z,12.71
2022-09-12T02:23:48.104Z,12.72
2022-09-12T02:26:30.973Z,12.70
2022-09-12T02:28:57.675Z,12.68
2022-09-12T02:31:42.765Z,12.67
2022-09-12T02:34:27.868Z,12.69
2022-09-12T02:37:27.201Z,12.72
2022-09-12T02:39:56.803Z,12.77
2022-09-12T02:42:24.334Z,12.76
2022-09-12T02:44:52.693Z,12.74
2022-09-12T02:47:31.454Z,12.71
2022-09-12T02:49:59.418Z,12.68
2022-09-12T02:52:28.064Z,12.63
2022-09-12T02:54:57.293Z,12.51
2022-09-12T02:57:23.849Z,12.50
2022-09-12T02:59:55.586Z,12.51
2022-09-12T03:02:40.611Z,12.50
2022-09-12T03:05:09.968Z,12.51
2022-09-12T03:07:42.536Z,12.54
2022-09-12T03:10:17.907Z,12.60
2022-09-12T03:13:24.830Z,12.61
2022-09-12T03:16:12.332Z,12.62
2022-09-12T03:18:47.810Z,12.64
2022-09-12T03:21:30.269Z,12.65
2022-09-12T03:24:15.959Z,12.68
2022-09-12T03:26:53.053Z,12.71
2022-09-12T03:29:20.339Z,12.75
2022-09-12T03:31:52.898Z,12.77
2022-09-12T03:34:20.913Z,12.77
2022-09-12T03:36:47.771Z,12.78
2022-09-12T03:39:14.626Z,12.77
2022-09-12T03:41:41.071Z,12.77
2022-09-12T03:44:07.744Z,12.77
2022-09-12T03:46:34.251Z,12.76
2022-09-12T03:49:00.807Z,12.76
2022-09-12T03:51:27.401Z,12.74
2022-09-12T03:53:54.191Z,12.72
2022-09-12T03:56:20.822Z,12.68
2022-09-12T03:58:47.356Z,12.69
2022-09-12T04:01:18.928Z,12.68
2022-09-12T04:03:48.049Z,12.63
2022-09-12T04:06:17.391Z,12.59
2022-09-12T04:08:44.617Z,12.59
2022-09-12T04:11:14.765Z,12.56
2022-09-12T04:13:43.197Z,12.54
2022-09-12T04:16:11.120Z,12.51
2022-09-12T04:18:38.244Z,12.47
2022-09-12T04:21:10.425Z,12.43
2022-09-12T04:23:36.832Z,12.46
2022-09-12T04:26:06.520Z,12.50
2022-09-12T04:28:34.523Z,12.52
2022-09-12T04:31:07.546Z,12.50
2022-09-12T04:33:35.217Z,12.54
2022-09-12T04:36:06.954Z,12.58
2022-09-12T04:38:34.981Z,12.60
2022-09-12T04:41:01.739Z,12.61
2022-09-12T04:43:28.233Z,12.58
2022-09-12T04:45:54.703Z,12.59
2022-09-12T04:48:21.168Z,12.59
2022-09-12T04:50:47.580Z,12.61
2022-09-12T04:53:14.012Z,12.63
2022-09-12T04:55:40.435Z,12.63
2022-09-12T04:58:06.849Z,12.68
2022-09-12T05:00:33.250Z,12.70
2022-09-12T05:03:00.237Z,12.71
2022-09-12T05:05:26.767Z,12.75
2022-09-12T05:07:53.192Z,12.80
2022-09-12T05:10:19.555Z,12.82
2022-09-12T05:12:46.050Z,12.83
2022-09-12T05:15:12.470Z,12.82
2022-09-12T05:17:38.830Z,12.84
2022-09-12T05:20:05.603Z,12.85
2022-09-12T05:22:33.060Z,12.81
2022-09-12T05:24:59.451Z,12.87
2022-09-12T05:27:25.845Z,12.84
2022-09-12T05:29:52.274Z,12.85
2022-09-12T05:32:18.680Z,12.87
2022-09-12T05:34:45.316Z,12.91
2022-09-12T05:37:12.616Z,12.92
2022-09-12T05:39:39.099Z,12.90
2022-09-12T05:42:06.091Z,12.94
2022-09-12T05:44:33.342Z,12.97
2022-09-12T05:46:59.782Z,13.03
2022-09-12T05:49:26.223Z,13.05
2022-09-12T05:51:52.703Z,13.09
2022-09-12T05:54:20.623Z,13.11
2022-09-12T05:56:47.381Z,13.13
2022-09-12T05:59:21.492Z,13.12
2022-09-12T06:01:48.981Z,13.14
2022-09-12T06:04:15.837Z,13.15
2022-09-12T06:06:47.249Z,13.16
2022-09-12T06:09:15.854Z,13.14
2022-09-12T06:11:42.945Z,13.15
2022-09-12T06:14:11.451Z,13.17
2022-09-12T06:16:38.962Z,13.21
2022-09-12T06:19:08.048Z,13.21
2022-09-12T06:21:35.372Z,13.25
2022-09-12T06:24:02.430Z,13.28
2022-09-12T06:26:29.844Z,13.31
2022-09-12T06:28:58.044Z,13.32
2022-09-12T06:31:33.972Z,13.38
2022-09-12T06:34:02.875Z,13.39
2022-09-12T06:36:32.673Z,13.42
2022-09-12T06:39:23.874Z,13.46
2022-09-12T06:41:52.048Z,13.49
2022-09-12T06:44:19.474Z,13.53
2022-09-12T06:46:46.208Z,13.56
2022-09-12T06:49:16.104Z,13.53
2022-09-12T06:51:42.608Z,13.53
2022-09-12T06:54:12.072Z,13.56
2022-09-12T06:56:38.877Z,13.61
2022-09-12T06:59:05.264Z,13.68
2022-09-12T07:01:31.997Z,13.72
2022-09-12T07:04:03.244Z,13.84
2022-09-12T07:06:35.355Z,13.95
2022-09-12T07:09:04.632Z,14.04
2022-09-12T07:11:33.757Z,14.13
2022-09-12T07:14:02.162Z,14.23
2022-09-12T07:16:30.327Z,14.33
2022-09-12T07:19:02.602Z,14.44
2022-09-12T07:21:30.060Z,14.54
2022-09-12T07:24:00.201Z,14.60
2022-09-12T07:26:28.925Z,14.65
2022-09-12T07:29:12.773Z,14.71
2022-09-12T07:31:44.749Z,14.83
2022-09-12T07:34:11.611Z,14.95
2022-09-12T07:36:39.135Z,15.07
2022-09-12T07:39:05.912Z,15.16
2022-09-12T07:41:35.654Z,15.19
2022-09-12T07:44:03.195Z,15.28
2022-09-12T07:46:31.363Z,15.32
2022-09-12T07:48:59.688Z,15.37
2022-09-12T07:51:29.720Z,15.41
2022-09-12T07:53:56.627Z,15.51
2022-09-12T07:56:28.775Z,15.57
2022-09-12T07:58:56.857Z,15.63
2022-09-12T08:01:23.547Z,15.63
2022-09-12T08:03:54.450Z,15.70
2022-09-12T08:06:24.129Z,15.70
2022-09-12T08:08:52.151Z,15.77
2022-09-12T08:11:20.258Z,15.88
2022-09-12T08:13:49.571Z,16.00
2022-09-12T08:16:21.435Z,16.07
2022-09-12T08:18:49.186Z,16.15
2022-09-12T08:21:18.579Z,16.23
2022-09-12T08:23:45.154Z,16.35
2022-09-12T08:26:13.219Z,16.41
2022-09-12T08:28:43.338Z,16.50
2022-09-12T08:31:15.155Z,16.59
2022-09-12T08:33:41.670Z,16.65
2022-09-12T08:36:11.313Z,16.74
2022-09-12T08:38:39.647Z,16.86
2022-09-12T08:41:18.098Z,16.97
2022-09-12T08:44:07.102Z,17.08
2022-09-12T08:47:07.357Z,17.20
2022-09-12T08:49:43.304Z,17.23
2022-09-12T08:52:17.221Z,17.28
2022-09-12T08:54:47.632Z,17.33
2022-09-12T08:57:15.257Z,17.38
2022-09-12T08:59:44.950Z,17.48
2022-09-12T09:02:46.920Z,17.54
2022-09-12T09:05:41.099Z,17.62
2022-09-12T09:08:22.950Z,17.79
2022-09-12T09:11:11.102Z,17.82
2022-09-12T09:14:17.419Z,17.92
2022-09-12T09:16:46.296Z,18.03
2022-09-12T09:19:24.649Z,18.13
2022-09-12T09:22:06.589Z,18.21
2022-09-12T09:24:48.918Z,18.31
2022-09-12T09:27:41.000Z,18.38
2022-09-12T09:30:17.453Z,18.42
2022-09-12T09:32:49.082Z,18.48
2022-09-12T09:35:43.526Z,18.53
2022-09-12T09:38:41.874Z,18.59
2022-09-12T09:41:30.812Z,18.69
2022-09-12T09:43:58.543Z,18.78
2022-09-12T09:46:25.426Z,18.87
2022-09-12T09:48:53.951Z,18.97
2022-09-12T09:51:32.909Z,19.02
2022-09-12T09:54:13.566Z,19.08
2022-09-12T09:56:42.471Z,19.22
2022-09-12T09:59:10.121Z,19.25
2022-09-12T10:01:37.628Z,19.28
2022-09-12T10:04:04.447Z,19.35
2022-09-12T10:06:34.380Z,19.40
2022-09-12T10:09:28.498Z,19.47
2022-09-12T10:11:56.365Z,19.63
2022-09-12T10:14:36.739Z,19.78
2022-09-12T10:17:23.454Z,19.87
2022-09-12T10:20:10.511Z,19.95
2022-09-12T10:22:38.598Z,19.96
2022-09-12T10:25:12.337Z,20.02
2022-09-12T10:27:38.788Z,20.13
2022-09-12T10:30:18.484Z,20.28
2022-09-12T10:32:50.604Z,20.34
2022-09-12T10:35:24.501Z,20.43
2022-09-12T10:37:57.025Z,20.49
2022-09-12T10:40:29.617Z,20.56
2022-09-12T10:42:58.651Z,20.62
2022-09-12T10:45:37.574Z,20.65
2022-09-12T10:48:32.530Z,20.78
2022-09-12T10:51:00.838Z,20.88
2022-09-12T10:53:34.325Z,20.97
2022-09-12T10:56:07.175Z,21.13
2022-09-12T10:58:42.837Z,21.20
2022-09-12T11:01:25.939Z,21.26
2022-09-12T11:04:01.763Z,21.33
2022-09-12T11:06:39.940Z,21.39
2022-09-12T11:09:17.569Z,21.57
2022-09-12T11:12:14.547Z,21.72
2022-09-12T11:15:10.983Z,21.81
2022-09-12T11:17:46.951Z,21.78
2022-09-12T11:20:31.625Z,21.80
2022-09-12T11:23:10.502Z,21.89
2022-09-12T11:25:44.086Z,22.04
2022-09-12T11:28:45.355Z,22.24
2022-09-12T11:31:32.392Z,22.43
2022-09-12T11:34:02.827Z,22.45
2022-09-12T11:36:55.476Z,22.61
2022-09-12T11:39:33.036Z,22.72
2022-09-12T11:42:05.851Z,22.76
2022-09-12T11:44:40.427Z,22.76
2022-09-12T11:47:14.594Z,22.73
2022-09-12T11:49:52.306Z,22.80
2022-09-12T11:52:38.326Z,22.71
2022-09-12T11:55:08.793Z,22.82
2022-09-12T11:57:47.773Z,22.86
2022-09-12T12:00:25.499Z,22.90
2022-09-12T12:03:47.065Z,22.87
2022-09-12T12:06:30.395Z,22.98
2022-09-12T12:09:04.397Z,23.07
2022-09-12T12:11:42.305Z,23.19
2022-09-12T12:14:25.101Z,23.22
2022-09-12T12:16:57.451Z,23.21
2022-09-12T12:19:35.334Z,23.24
2022-09-12T12:22:29.519Z,23.26
2022-09-12T12:25:19.599Z,23.30
2022-09-12T12:28:07.489Z,23.43
2022-09-12T12:30:59.088Z,23.57
2022-09-12T12:33:30.504Z,23.63
2022-09-12T12:36:10.504Z,23.67
2022-09-12T12:38:43.125Z,23.72
2022-09-12T12:41:20.346Z,23.75
2022-09-12T12:43:52.300Z,23.86
2022-09-12T12:46:33.379Z,23.84
2022-09-12T12:49:27.250Z,23.90
2022-09-12T12:52:00.363Z,23.88
2022-09-12T12:54:43.731Z,23.92
2022-09-12T12:57:46.349Z,23.96
2022-09-12T13:00:33.407Z,23.96
2022-09-12T13:03:34.449Z,24.02
2022-09-12T13:06:37.811Z,24.07
2022-09-12T13:12:57.950Z,24.14
2022-09-12T13:15:37.158Z,24.16
2022-09-12T13:18:12.382Z,24.19
2022-09-12T13:20:56.780Z,24.20
2022-09-12T13:23:30.574Z,24.30
2022-09-12T13:26:01.766Z,24.46
2022-09-12T13:28:31.096Z,24.57
2022-09-12T13:31:02.911Z,24.57
2022-09-12T13:33:35.535Z,24.59
2022-09-12T13:36:19.137Z,24.55
2022-09-12T13:38:46.655Z,24.56
2022-09-12T14:07:01.613Z,24.66
2022-09-12T14:09:38.506Z,24.71
2022-09-12T14:12:25.115Z,24.86
2022-09-12T14:14:52.920Z,24.89
2022-09-12T14:17:29.764Z,24.88
2022-09-12T14:19:59.336Z,24.90
2022-09-12T14:22:29.298Z,24.94
2022-09-12T14:24:58.709Z,24.93
2022-09-12T14:27:31.817Z,24.89
2022-09-12T14:30:20.873Z,24.76
2022-09-12T14:33:12.201Z,24.67
2022-09-12T14:35:43.604Z,24.70
2022-09-12T14:38:13.136Z,24.74
2022-09-12T14:40:46.011Z,24.68
2022-09-12T14:43:28.262Z,24.68
2022-09-12T14:45:59.720Z,24.73
2022-09-12T14:48:30.776Z,24.76
2022-09-12T14:50:58.451Z,24.76
2022-09-12T14:53:30.548Z,24.81
2022-09-12T14:56:06.802Z,24.86
2022-09-12T14:58:34.034Z,24.81
2022-09-12T15:01:06.971Z,24.74
2022-09-12T15:03:49.412Z,24.62
2022-09-12T15:06:32.002Z,24.48
2022-09-12T15:09:02.580Z,24.43
2022-09-12T15:11:29.219Z,24.41
2022-09-12T15:13:55.676Z,24.42
2022-09-12T15:16:22.185Z,24.34
2022-09-12T15:18:48.702Z,24.31
2022-09-12T15:21:20.266Z,24.30
2022-09-12T15:23:51.832Z,24.26
2022-09-12T15:26:22.012Z,24.17
2022-09-12T15:28:48.850Z,24.12
2022-09-12T15:31:30.195Z,24.06
2022-09-12T15:33:59.277Z,24.03
2022-09-12T15:36:26.781Z,24.03
2022-09-12T15:38:53.648Z,24.01
2022-09-12T15:41:38.074Z,23.98
2022-09-12T15:44:05.536Z,23.95
2022-09-12T15:46:32.151Z,23.88
2022-09-12T15:48:58.635Z,23.85
2022-09-12T15:51:25.475Z,23.82
2022-09-12T15:53:52.686Z,23.90
2022-09-12T15:56:21.177Z,23.96
2022-09-12T15:58:58.343Z,24.02
2022-09-12T16:01:26.318Z,24.02
2022-09-12T16:03:52.817Z,24.06
2022-09-12T16:06:19.273Z,24.06
2022-09-12T16:08:45.907Z,24.01
2022-09-12T16:11:20.830Z,24.00
2022-09-12T16:13:47.330Z,23.96
2022-09-12T16:16:13.842Z,23.90
2022-09-12T16:18:40.814Z,23.86
2022-09-12T16:21:10.102Z,23.80
2022-09-12T16:23:43.147Z,23.75
2022-09-12T16:26:09.587Z,23.74
2022-09-12T16:28:36.358Z,23.66
2022-09-12T16:31:05.855Z,23.56
2022-09-12T16:33:32.696Z,23.53
2022-09-12T16:36:04.938Z,23.48
2022-09-12T16:38:32.563Z,23.43
2022-09-12T16:41:04.118Z,23.39
2022-09-12T16:43:31.788Z,23.37
2022-09-12T16:46:05.460Z,23.32
2022-09-12T16:48:32.394Z,23.27
2022-09-12T16:51:01.428Z,23.20
2022-09-12T16:53:32.143Z,23.14
2022-09-12T16:55:58.848Z,23.14
2022-09-12T16:58:25.588Z,23.07
2022-09-12T17:01:03.810Z,22.95
2022-09-12T17:03:30.594Z,22.79
2022-09-12T17:06:01.656Z,22.66
2022-09-12T17:08:28.986Z,22.55
2022-09-12T17:11:10.550Z,22.49
2022-09-12T17:14:00.500Z,22.36
2022-09-12T17:16:24.893Z,22.25
2022-09-12T17:18:52.527Z,22.12
2022-09-12T17:21:19.551Z,22.05
2022-09-12T17:23:46.343Z,22.03
2022-09-12T17:26:13.707Z,21.94
2022-09-12T17:28:40.511Z,21.88
2022-09-12T17:31:09.589Z,21.80
2022-09-12T17:33:37.104Z,21.74
2022-09-12T17:36:15.039Z,21.76
2022-09-12T17:38:43.060Z,21.81
2022-09-12T17:41:23.822Z,21.81
2022-09-12T17:43:55.815Z,21.82
2022-09-12T17:46:24.651Z,21.81
2022-09-12T17:48:53.489Z,21.78
2022-09-12T17:51:20.903Z,21.76
2022-09-12T17:53:47.533Z,21.71
2022-09-12T17:56:15.600Z,21.66
2022-09-12T17:58:42.149Z,21.57
2022-09-12T18:01:32.847Z,21.42
2022-09-12T18:04:00.780Z,21.39
2022-09-12T18:06:29.218Z,21.37
2022-09-12T18:08:55.843Z,21.33
2022-09-12T18:11:22.326Z,21.24
2022-09-12T18:13:48.947Z,21.15
2022-09-12T18:16:15.679Z,21.13
2022-09-12T18:18:42.283Z,21.09
2022-09-12T18:21:11.468Z,21.03
2022-09-12T18:23:38.271Z,20.98
2022-09-12T18:26:09.898Z,20.95
2022-09-12T18:28:38.933Z,20.90
2022-09-12T18:31:11.921Z,20.87
2022-09-12T18:33:38.433Z,20.80
2022-09-12T18:36:06.139Z,20.78
2022-09-12T18:38:32.659Z,20.75
2022-09-12T18:41:07.300Z,20.72
2022-09-12T18:43:34.700Z,20.66
2022-09-12T18:46:10.354Z,20.60
2022-09-12T18:48:37.697Z,20.55
2022-09-12T18:51:12.264Z,20.49
2022-09-12T18:53:39.128Z,20.38
2022-09-12T18:56:08.620Z,20.27
2022-09-12T18:58:40.534Z,20.14
2022-09-12T19:01:11.632Z,20.08
2022-09-12T19:03:38.272Z,20.07
2022-09-12T19:06:17.544Z,20.09
2022-09-12T19:08:45.059Z,20.01
2022-09-12T19:11:11.946Z,19.87
2022-09-12T19:13:40.925Z,19.83
2022-09-12T19:16:10.243Z,19.80
2022-09-12T19:18:38.556Z,19.69
2022-09-12T19:21:06.449Z,19.64
2022-09-12T19:23:35.691Z,19.56
2022-09-12T19:26:05.757Z,19.54
2022-09-12T19:28:33.168Z,19.47
2022-09-12T19:30:59.847Z,19.43
2022-09-12T19:33:26.350Z,19.45
2022-09-12T19:35:52.778Z,19.50
2022-09-12T19:38:19.577Z,19.52
2022-09-12T19:40:56.832Z,19.55
2022-09-12T19:43:24.206Z,19.61
2022-09-12T19:45:51.913Z,19.65
2022-09-12T19:48:19.488Z,19.66
2022-09-12T19:50:45.962Z,19.70
2022-09-12T19:53:12.694Z,19.71
2022-09-12T19:55:39.188Z,19.74
2022-09-12T19:58:06.158Z,19.77
2022-09-12T20:00:34.290Z,19.78
2022-09-12T20:03:01.645Z,19.77
2022-09-12T20:05:28.448Z,19.78
2022-09-12T20:07:54.913Z,19.78
2022-09-12T20:10:21.393Z,19.75
2022-09-12T20:12:47.824Z,19.60
2022-09-12T20:15:14.347Z,19.57
2022-09-12T20:17:40.899Z,19.51
2022-09-12T20:20:09.414Z,19.44
2022-09-12T20:22:39.866Z,19.31
2022-09-12T20:25:07.188Z,19.25
2022-09-12T20:27:33.918Z,19.30
2022-09-12T20:30:00.419Z,19.33
2022-09-12T20:32:28.932Z,19.30
2022-09-12T20:34:56.395Z,19.21
2022-09-12T20:37:23.296Z,19.22
2022-09-12T20:39:50.988Z,19.23
2022-09-12T20:42:17.794Z,19.18
2022-09-12T20:44:44.236Z,19.10
2022-09-12T20:47:10.684Z,19.07
2022-09-12T20:49:37.149Z,19.02
2022-09-12T20:52:04.529Z,18.97
2022-09-12T20:54:31.113Z,19.00
2022-09-12T20:56:57.497Z,19.03
2022-09-12T20:59:23.935Z,18.99
2022-09-12T21:01:50.468Z,18.91
2022-09-12T21:04:18.317Z,18.94
2022-09-12T21:06:44.770Z,19.00
2022-09-12T21:09:11.318Z,19.06
2022-09-12T21:11:37.852Z,19.11
2022-09-12T21:14:04.315Z,19.11
2022-09-12T21:16:30.896Z,19.05
2022-09-12T21:18:59.543Z,19.03
2022-09-12T21:21:26.451Z,18.96
2022-09-12T21:23:55.214Z,18.91
2022-09-12T21:26:21.734Z,18.88
2022-09-12T21:28:48.549Z,18.86
2022-09-12T21:31:15.070Z,18.78
2022-09-12T21:33:41.663Z,18.77
2022-09-12T21:36:08.715Z,18.83
2022-09-12T21:38:35.385Z,18.89
2022-09-12T21:41:13.186Z,18.92
2022-09-12T21:43:40.680Z,18.95
2022-09-12T21:46:07.660Z,18.96
2022-09-12T21:48:34.379Z,18.99
2022-09-12T21:51:01.235Z,18.99
2022-09-12T21:53:28.067Z,18.99
2022-09-12T21:55:54.998Z,18.98
2022-09-12T21:58:21.458Z,18.96
2022-09-12T22:00:47.929Z,18.91
2022-09-12T22:03:15.364Z,18.84
2022-09-12T22:05:41.810Z,18.88
2022-09-12T22:08:08.594Z,18.89
2022-09-12T22:10:36.093Z,18.91
2022-09-12T22:13:02.924Z,18.93
2022-09-12T22:15:40.525Z,18.93
2022-09-12T22:18:07.668Z,18.95
2022-09-12T22:20:34.141Z,18.97
2022-09-12T22:23:23.831Z,18.98
2022-09-12T22:25:54.295Z,18.96
2022-09-12T22:28:21.247Z,18.95
2022-09-12T22:30:48.551Z,18.95
2022-09-12T22:33:15.458Z,18.95
2022-09-12T22:35:42.458Z,18.96
2022-09-12T22:38:09.211Z,18.96
2022-09-12T22:40:35.833Z,18.95
2022-09-12T22:43:02.405Z,18.92
2022-09-12T22:45:28.914Z,18.92
2022-09-12T22:47:59.149Z,18.91
2022-09-12T22:50:27.592Z,18.89
2022-09-12T22:52:54.157Z,18.86
2022-09-12T22:55:20.637Z,18.84
2022-09-12T22:57:47.182Z,18.82
2022-09-12T23:00:14.816Z,18.79
2022-09-12T23:02:41.412Z,18.69
2022-09-12T23:05:08.186Z,18.57
2022-09-12T23:07:34.642Z,18.48
2022-09-12T23:10:01.229Z,18.42
2022-09-12T23:12:27.687Z,18.33
2022-09-12T23:14:54.187Z,18.26
2022-09-12T23:17:20.622Z,18.23
2022-09-12T23:19:47.013Z,18.24
2022-09-12T23:22:13.520Z,18.28
2022-09-12T23:24:39.962Z,18.35
2022-09-12T23:27:06.432Z,18.40
2022-09-12T23:29:35.305Z,18.42
2022-09-12T23:32:03.528Z,18.45
2022-09-12T23:34:30.003Z,18.49
2022-09-12T23:36:56.735Z,18.51
2022-09-12T23:39:23.417Z,18.47
2022-09-12T23:41:50.286Z,18.43
2022-09-12T23:44:16.765Z,18.40
2022-09-12T23:46:43.182Z,18.35
2022-09-12T23:49:09.630Z,18.31
2022-09-12T23:51:36.123Z,18.30
2022-09-12T23:54:02.628Z,18.30
2022-09-12T23:56:29.145Z,18.33
2022-09-12T23:58:55.602Z,18.35
